sensor_id;sensor_type;location;lat;lon;timestamp;pressure;altitude;pressure_sealevel;temperature;humidity
85082;BME280;75424;50.762;7.178;2024-02-21T00:02:03;101719.19;;;8.86;75.69
85082;BME280;75424;50.762;7.178;2024-02-21T00:04:29;101715.75;;;8.82;75.19
85082;BME280;75424;50.762;7.178;2024-02-21T00:06:54;101721.06;;;8.82;75.32
85082;BME280;75424;50.762;7.178;2024-02-21T00:09:20;101712.19;;;8.83;75.43
85082;BME280;75424;50.762;7.178;2024-02-21T00:11:45;101714.72;;;8.88;74.81
85082;BME280;75424;50.762;7.178;2024-02-21T00:14:11;101709.34;;;8.92;75.17
85082;BME280;75424;50.762;7.178;2024-02-21T00:16:36;101706.84;;;8.86;75.21
85082;BME280;75424;50.762;7.178;2024-02-21T00:19:01;101705.06;;;8.85;76.11
85082;BME280;75424;50.762;7.178;2024-02-21T00:21:27;101698.91;;;8.85;75.29
85082;BME280;75424;50.762;7.178;2024-02-21T00:23:52;101695.41;;;8.83;75.45
85082;BME280;75424;50.762;7.178;2024-02-21T00:26:17;101706.88;;;8.83;76.04
85082;BME280;75424;50.762;7.178;2024-02-21T00:28:43;101698.94;;;8.83;76.23
85082;BME280;75424;50.762;7.178;2024-02-21T00:31:08;101703.34;;;8.83;76.00
85082;BME280;75424;50.762;7.178;2024-02-21T00:33:34;101693.63;;;8.83;75.51
85082;BME280;75424;50.762;7.178;2024-02-21T00:35:59;101684.78;;;8.84;75.56
85082;BME280;75424;50.762;7.178;2024-02-21T00:38:24;101669.75;;;8.85;76.18
85082;BME280;75424;50.762;7.178;2024-02-21T00:40:49;101668.88;;;8.84;76.17
85082;BME280;75424;50.762;7.178;2024-02-21T00:43:15;101681.31;;;8.81;76.10
85082;BME280;75424;50.762;7.178;2024-02-21T00:45:40;101668.97;;;8.78;75.62
85082;BME280;75424;50.762;7.178;2024-02-21T00:48:06;101671.69;;;8.77;75.83
85082;BME280;75424;50.762;7.178;2024-02-21T00:50:32;101663.63;;;8.81;75.97
85082;BME280;75424;50.762;7.178;2024-02-21T00:52:57;101661.88;;;8.80;76.18
85082;BME280;75424;50.762;7.178;2024-02-21T00:55:22;101667.19;;;8.80;75.91
85082;BME280;75424;50.762;7.178;2024-02-21T00:57:48;101674.38;;;8.75;76.05
85082;BME280;75424;50.762;7.178;2024-02-21T01:00:13;101674.38;;;8.75;76.21
85082;BME280;75424;50.762;7.178;2024-02-21T01:02:39;101667.25;;;8.77;76.65
85082;BME280;75424;50.762;7.178;2024-02-21T01:05:04;101667.25;;;8.77;76.12
85082;BME280;75424;50.762;7.178;2024-02-21T01:07:30;101656.66;;;8.76;76.29
85082;BME280;75424;50.762;7.178;2024-02-21T01:09:55;101648.78;;;8.73;76.93
85082;BME280;75424;50.762;7.178;2024-02-21T01:12:21;101648.78;;;8.73;76.96
85082;BME280;75424;50.762;7.178;2024-02-21T01:14:46;101649.69;;;8.72;76.56
85082;BME280;75424;50.762;7.178;2024-02-21T01:17:12;101647.97;;;8.69;77.44
85082;BME280;75424;50.762;7.178;2024-02-21T01:19:37;101654.28;;;8.62;77.88
85082;BME280;75424;50.762;7.178;2024-02-21T01:22:03;101651.69;;;8.59;77.34
85082;BME280;75424;50.762;7.178;2024-02-21T01:24:29;101639.25;;;8.64;77.64
85082;BME280;75424;50.762;7.178;2024-02-21T01:26:55;101639.19;;;8.67;76.89
85082;BME280;75424;50.762;7.178;2024-02-21T01:29:20;101633.03;;;8.65;77.23
85082;BME280;75424;50.762;7.178;2024-02-21T01:31:45;101629.47;;;8.66;77.30
85082;BME280;75424;50.762;7.178;2024-02-21T01:34:10;101618.84;;;8.68;77.05
85082;BME280;75424;50.762;7.178;2024-02-21T01:36:36;101619.78;;;8.65;76.80
85082;BME280;75424;50.762;7.178;2024-02-21T01:39:01;101624.19;;;8.66;77.65
85082;BME280;75424;50.762;7.178;2024-02-21T01:41:29;101625.94;;;8.67;76.56
85082;BME280;75424;50.762;7.178;2024-02-21T01:43:55;101617.94;;;8.69;76.91
85082;BME280;75424;50.762;7.178;2024-02-21T01:46:20;101608.22;;;8.69;76.68
85082;BME280;75424;50.762;7.178;2024-02-21T01:48:45;101595.91;;;8.67;76.86
85082;BME280;75424;50.762;7.178;2024-02-21T01:51:11;101607.44;;;8.66;76.53
85082;BME280;75424;50.762;7.178;2024-02-21T01:53:42;101605.75;;;8.62;76.81
85082;BME280;75424;50.762;7.178;2024-02-21T01:56:08;101603.03;;;8.63;77.02
85082;BME280;75424;50.762;7.178;2024-02-21T01:58:36;101603.94;;;8.64;76.75
85082;BME280;75424;50.762;7.178;2024-02-21T02:01:05;101598.69;;;8.61;77.68
85082;BME280;75424;50.762;7.178;2024-02-21T02:03:30;101598.72;;;8.59;77.15
85082;BME280;75424;50.762;7.178;2024-02-21T02:05:56;101597.88;;;8.57;77.67
85082;BME280;75424;50.762;7.178;2024-02-21T02:08:21;101595.19;;;8.60;77.49
85082;BME280;75424;50.762;7.178;2024-02-21T02:10:48;101590.72;;;8.62;77.75
85082;BME280;75424;50.762;7.178;2024-02-21T02:13:13;101583.66;;;8.63;77.34
85082;BME280;75424;50.762;7.178;2024-02-21T02:15:49;101582.81;;;8.59;78.11
85082;BME280;75424;50.762;7.178;2024-02-21T02:18:16;101576.69;;;8.57;77.92
85082;BME280;75424;50.762;7.178;2024-02-21T02:20:43;101577.56;;;8.58;78.62
85082;BME280;75424;50.762;7.178;2024-02-21T02:23:29;101574.97;;;8.56;77.95
85082;BME280;75424;50.762;7.178;2024-02-21T02:25:55;101566.09;;;8.57;78.09
85082;BME280;75424;50.762;7.178;2024-02-21T02:28:21;101562.59;;;8.55;78.53
85082;BME280;75424;50.762;7.178;2024-02-21T02:30:48;101555.56;;;8.54;78.36
85082;BME280;75424;50.762;7.178;2024-02-21T02:33:13;101546.72;;;8.54;77.75
85082;BME280;75424;50.762;7.178;2024-02-21T02:35:39;101544.16;;;8.51;78.45
85082;BME280;75424;50.762;7.178;2024-02-21T02:38:04;101543.28;;;8.50;77.67
85082;BME280;75424;50.762;7.178;2024-02-21T02:40:33;101537.19;;;8.47;78.01
85082;BME280;75424;50.762;7.178;2024-02-21T02:42:59;101524.78;;;8.49;78.45
85082;BME280;75424;50.762;7.178;2024-02-21T02:45:24;101526.38;;;8.56;77.67
85082;BME280;75424;50.762;7.178;2024-02-21T02:47:54;101518.34;;;8.60;77.99
85082;BME280;75424;50.762;7.178;2024-02-21T02:50:20;101518.38;;;8.59;78.26
85082;BME280;75424;50.762;7.178;2024-02-21T02:52:46;101521.94;;;8.58;77.76
85082;BME280;75424;50.762;7.178;2024-02-21T02:55:11;101522.00;;;8.55;78.27
85082;BME280;75424;50.762;7.178;2024-02-21T02:57:37;101516.72;;;8.55;77.69
85082;BME280;75424;50.762;7.178;2024-02-21T03:00:03;101523.78;;;8.54;77.95
85082;BME280;75424;50.762;7.178;2024-02-21T03:02:28;101517.66;;;8.52;77.99
85082;BME280;75424;50.762;7.178;2024-02-21T03:04:55;101520.28;;;8.52;78.81
85082;BME280;75424;50.762;7.178;2024-02-21T03:07:20;101520.25;;;8.54;78.10
85082;BME280;75424;50.762;7.178;2024-02-21T03:09:45;101515.81;;;8.54;78.02
85082;BME280;75424;50.762;7.178;2024-02-21T03:12:11;101524.72;;;8.52;78.70
85082;BME280;75424;50.762;7.178;2024-02-21T03:14:36;101515.09;;;8.48;78.83
85082;BME280;75424;50.762;7.178;2024-02-21T03:17:02;101513.28;;;8.48;78.21
85082;BME280;75424;50.762;7.178;2024-02-21T03:19:28;101497.53;;;8.42;78.59
85082;BME280;75424;50.762;7.178;2024-02-21T03:21:53;101494.97;;;8.39;78.65
85082;BME280;75424;50.762;7.178;2024-02-21T03:24:19;101494.94;;;8.41;79.47
85082;BME280;75424;50.762;7.178;2024-02-21T03:26:45;101494.94;;;8.41;79.46
85082;BME280;75424;50.762;7.178;2024-02-21T03:29:16;101486.22;;;8.36;79.63
85082;BME280;75424;50.762;7.178;2024-02-21T03:31:42;101485.38;;;8.32;79.72
85082;BME280;75424;50.762;7.178;2024-02-21T03:34:10;101470.38;;;8.33;79.99
85082;BME280;75424;50.762;7.178;2024-02-21T03:36:36;101470.34;;;8.34;79.65
85082;BME280;75424;50.762;7.178;2024-02-21T03:39:01;101468.63;;;8.33;80.12
85082;BME280;75424;50.762;7.178;2024-02-21T03:41:27;101471.28;;;8.33;79.04
85082;BME280;75424;50.762;7.178;2024-02-21T03:43:52;101470.38;;;8.33;79.88
85082;BME280;75424;50.762;7.178;2024-02-21T03:46:17;101477.50;;;8.29;80.30
85082;BME280;75424;50.762;7.178;2024-02-21T03:48:42;101472.22;;;8.29;79.64
85082;BME280;75424;50.762;7.178;2024-02-21T03:51:08;101470.44;;;8.30;79.47
85082;BME280;75424;50.762;7.178;2024-02-21T03:53:34;101465.13;;;8.31;79.74
85082;BME280;75424;50.762;7.178;2024-02-21T03:56:03;101461.63;;;8.29;79.56
85082;BME280;75424;50.762;7.178;2024-02-21T03:58:30;101458.97;;;8.29;79.82
85082;BME280;75424;50.762;7.178;2024-02-21T04:00:55;101451.81;;;8.34;79.54
85082;BME280;75424;50.762;7.178;2024-02-21T04:03:20;101462.44;;;8.33;79.88
85082;BME280;75424;50.762;7.178;2024-02-21T04:05:46;101459.88;;;8.28;80.08
85082;BME280;75424;50.762;7.178;2024-02-21T04:08:11;101456.38;;;8.28;80.17
85082;BME280;75424;50.762;7.178;2024-02-21T04:10:37;101453.69;;;8.29;80.41
85082;BME280;75424;50.762;7.178;2024-02-21T04:13:03;101449.16;;;8.36;79.56
85082;BME280;75424;50.762;7.178;2024-02-21T04:15:28;101450.84;;;8.38;80.16
85082;BME280;75424;50.762;7.178;2024-02-21T04:17:54;101457.88;;;8.39;79.89
85082;BME280;75424;50.762;7.178;2024-02-21T04:20:19;101464.91;;;8.40;79.50
85082;BME280;75424;50.762;7.178;2024-02-21T04:22:45;101469.44;;;8.35;79.28
85082;BME280;75424;50.762;7.178;2024-02-21T04:25:11;101457.16;;;8.33;80.09
85082;BME280;75424;50.762;7.178;2024-02-21T04:27:37;101458.03;;;8.33;80.02
85082;BME280;75424;50.762;7.178;2024-02-21T04:30:03;101462.38;;;8.36;79.74
85082;BME280;75424;50.762;7.178;2024-02-21T04:32:29;101463.22;;;8.38;80.13
85082;BME280;75424;50.762;7.178;2024-02-21T04:34:54;101460.53;;;8.39;79.82
85082;BME280;75424;50.762;7.178;2024-02-21T04:37:20;101454.31;;;8.40;79.33
85082;BME280;75424;50.762;7.178;2024-02-21T04:39:46;101455.22;;;8.39;80.41
85082;BME280;75424;50.762;7.178;2024-02-21T04:42:11;101451.66;;;8.40;79.64
85082;BME280;75424;50.762;7.178;2024-02-21T04:44:36;101449.13;;;8.37;79.86
85082;BME280;75424;50.762;7.178;2024-02-21T04:47:03;101448.16;;;8.40;79.75
85082;BME280;75424;50.762;7.178;2024-02-21T04:49:29;101437.59;;;8.38;79.34
85082;BME280;75424;50.762;7.178;2024-02-21T04:51:54;101432.25;;;8.41;79.18
85082;BME280;75424;50.762;7.178;2024-02-21T04:54:19;101431.28;;;8.45;78.92
85082;BME280;75424;50.762;7.178;2024-02-21T04:56:45;101430.50;;;8.39;78.67
85082;BME280;75424;50.762;7.178;2024-02-21T04:59:10;101432.31;;;8.38;78.85
85082;BME280;75424;50.762;7.178;2024-02-21T05:01:35;101443.88;;;8.34;79.46
85082;BME280;75424;50.762;7.178;2024-02-21T05:04:01;101441.22;;;8.34;79.96
85082;BME280;75424;50.762;7.178;2024-02-21T05:06:26;101434.09;;;8.36;79.84
85082;BME280;75424;50.762;7.178;2024-02-21T05:08:51;101430.50;;;8.39;79.29
85082;BME280;75424;50.762;7.178;2024-02-21T05:11:16;101425.94;;;8.47;78.93
85082;BME280;75424;50.762;7.178;2024-02-21T05:13:42;101423.31;;;8.47;79.06
85082;BME280;75424;50.762;7.178;2024-02-21T05:16:07;101423.34;;;8.45;78.69
85082;BME280;75424;50.762;7.178;2024-02-21T05:18:33;101423.31;;;8.47;78.59
85082;BME280;75424;50.762;7.178;2024-02-21T05:20:59;101420.59;;;8.48;78.43
85082;BME280;75424;50.762;7.178;2024-02-21T05:23:24;101425.84;;;8.50;79.12
85082;BME280;75424;50.762;7.178;2024-02-21T05:25:49;101419.00;;;8.41;78.77
85082;BME280;75424;50.762;7.178;2024-02-21T05:28:15;101420.81;;;8.39;79.13
85082;BME280;75424;50.762;7.178;2024-02-21T05:30:40;101419.06;;;8.38;79.19
85082;BME280;75424;50.762;7.178;2024-02-21T05:33:08;101430.41;;;8.43;78.46
85082;BME280;75424;50.762;7.178;2024-02-21T05:35:34;101428.63;;;8.45;78.35
85082;BME280;75424;50.762;7.178;2024-02-21T05:38:00;101428.59;;;8.47;79.02
85082;BME280;75424;50.762;7.178;2024-02-21T05:40:26;101432.09;;;8.47;78.26
85082;BME280;75424;50.762;7.178;2024-02-21T05:42:51;101418.91;;;8.44;78.80
85082;BME280;75424;50.762;7.178;2024-02-21T05:45:17;101402.03;;;8.48;78.27
85082;BME280;75424;50.762;7.178;2024-02-21T05:47:43;101394.16;;;8.47;78.04
85082;BME280;75424;50.762;7.178;2024-02-21T05:50:09;101394.19;;;8.45;77.72
85082;BME280;75424;50.762;7.178;2024-02-21T05:52:34;101396.69;;;8.51;77.49
85082;BME280;75424;50.762;7.178;2024-02-21T05:55:00;101397.63;;;8.49;78.01
85082;BME280;75424;50.762;7.178;2024-02-21T05:57:25;101406.50;;;8.48;77.97
85082;BME280;75424;50.762;7.178;2024-02-21T05:59:50;101402.16;;;8.45;77.93
85082;BME280;75424;50.762;7.178;2024-02-21T06:02:15;101403.03;;;8.44;78.56
85082;BME280;75424;50.762;7.178;2024-02-21T06:04:41;101404.84;;;8.42;77.81
85082;BME280;75424;50.762;7.178;2024-02-21T06:07:08;101400.47;;;8.41;77.47
85082;BME280;75424;50.762;7.178;2024-02-21T06:09:34;101403.19;;;8.38;78.39
85082;BME280;75424;50.762;7.178;2024-02-21T06:11:59;101406.69;;;8.39;78.24
85082;BME280;75424;50.762;7.178;2024-02-21T06:14:24;101408.44;;;8.40;79.01
85082;BME280;75424;50.762;7.178;2024-02-21T06:16:49;101398.81;;;8.37;78.79
85082;BME280;75424;50.762;7.178;2024-02-21T06:19:15;101397.84;;;8.40;78.30
85082;BME280;75424;50.762;7.178;2024-02-21T06:21:40;101394.41;;;8.35;78.94
85082;BME280;75424;50.762;7.178;2024-02-21T06:24:06;101386.44;;;8.36;79.20
85082;BME280;75424;50.762;7.178;2024-02-21T06:26:31;101381.09;;;8.39;78.67
85082;BME280;75424;50.762;7.178;2024-02-21T06:28:56;101384.72;;;8.35;78.58
85082;BME280;75424;50.762;7.178;2024-02-21T06:31:22;101384.81;;;8.31;78.90
85082;BME280;75424;50.762;7.178;2024-02-21T06:33:48;101386.59;;;8.30;79.29
85082;BME280;75424;50.762;7.178;2024-02-21T06:36:13;101380.41;;;8.30;78.42
85082;BME280;75424;50.762;7.178;2024-02-21T06:38:38;101380.34;;;8.33;77.88
85082;BME280;75424;50.762;7.178;2024-02-21T06:41:03;101381.25;;;8.33;78.34
85082;BME280;75424;50.762;7.178;2024-02-21T06:43:29;101380.38;;;8.31;78.64
85082;BME280;75424;50.762;7.178;2024-02-21T06:45:54;101374.22;;;8.31;79.04
85082;BME280;75424;50.762;7.178;2024-02-21T06:48:22;101374.22;;;8.31;78.55
85082;BME280;75424;50.762;7.178;2024-02-21T06:50:47;101375.09;;;8.31;78.89
85082;BME280;75424;50.762;7.178;2024-02-21T06:53:12;101372.41;;;8.33;78.96
85082;BME280;75424;50.762;7.178;2024-02-21T06:55:38;101372.34;;;8.36;79.08
85082;BME280;75424;50.762;7.178;2024-02-21T06:58:03;101359.00;;;8.39;78.57
85082;BME280;75424;50.762;7.178;2024-02-21T07:00:29;101360.84;;;8.37;78.66
85082;BME280;75424;50.762;7.178;2024-02-21T07:02:54;101360.72;;;8.43;78.97
85082;BME280;75424;50.762;7.178;2024-02-21T07:05:20;101352.78;;;8.43;78.61
85082;BME280;75424;50.762;7.178;2024-02-21T07:07:45;101354.44;;;8.47;78.40
85082;BME280;75424;50.762;7.178;2024-02-21T07:10:11;101351.81;;;8.45;78.81
85082;BME280;75424;50.762;7.178;2024-02-21T07:17:46;101342.03;;;8.47;78.73
85082;BME280;75424;50.762;7.178;2024-02-21T07:20:12;101344.69;;;8.47;78.26
85082;BME280;75424;50.762;7.178;2024-02-21T07:22:37;101335.00;;;8.46;78.68
85082;BME280;75424;50.762;7.178;2024-02-21T07:25:03;101342.00;;;8.49;78.66
85082;BME280;75424;50.762;7.178;2024-02-21T07:27:29;101332.13;;;8.55;78.13
85082;BME280;75424;50.762;7.178;2024-02-21T07:29:56;101340.13;;;8.54;78.49
85082;BME280;75424;50.762;7.178;2024-02-21T07:32:22;101337.47;;;8.54;78.44
85082;BME280;75424;50.762;7.178;2024-02-21T07:34:47;101332.97;;;8.57;77.78
85082;BME280;75424;50.762;7.178;2024-02-21T07:37:13;101329.41;;;8.58;78.22
85082;BME280;75424;50.762;7.178;2024-02-21T07:39:38;101330.22;;;8.62;77.24
85082;BME280;75424;50.762;7.178;2024-02-21T07:42:04;101332.00;;;8.61;76.90
85082;BME280;75424;50.762;7.178;2024-02-21T07:44:29;101330.09;;;8.66;77.41
85082;BME280;75424;50.762;7.178;2024-02-21T07:46:54;101328.31;;;8.67;77.22
85082;BME280;75424;50.762;7.178;2024-02-21T07:49:19;101323.03;;;8.67;76.73
85082;BME280;75424;50.762;7.178;2024-02-21T07:51:45;101325.56;;;8.71;76.70
85082;BME280;75424;50.762;7.178;2024-02-21T07:54:10;101329.06;;;8.72;76.19
85082;BME280;75424;50.762;7.178;2024-02-21T07:56:36;101329.94;;;8.72;76.16
85082;BME280;75424;50.762;7.178;2024-02-21T07:59:01;101338.69;;;8.76;76.22
85082;BME280;75424;50.762;7.178;2024-02-21T08:01:26;101340.56;;;8.72;75.96
85082;BME280;75424;50.762;7.178;2024-02-21T08:03:52;101333.44;;;8.73;75.91
85082;BME280;75424;50.762;7.178;2024-02-21T08:06:17;101330.78;;;8.74;75.04
85082;BME280;75424;50.762;7.178;2024-02-21T08:08:42;101330.72;;;8.76;75.65
85082;BME280;75424;50.762;7.178;2024-02-21T08:11:08;101329.75;;;8.80;75.50
85082;BME280;75424;50.762;7.178;2024-02-21T08:13:33;101326.09;;;8.84;74.64
85082;BME280;75424;50.762;7.178;2024-02-21T08:15:58;101325.19;;;8.86;74.83
85082;BME280;75424;50.762;7.178;2024-02-21T08:18:23;101312.72;;;8.90;73.82
85082;BME280;75424;50.762;7.178;2024-02-21T08:20:49;101318.91;;;8.90;74.60
85082;BME280;75424;50.762;7.178;2024-02-21T08:23:16;101311.69;;;8.95;74.10
85082;BME280;75424;50.762;7.178;2024-02-21T08:25:41;101309.91;;;8.96;74.21
85082;BME280;75424;50.762;7.178;2024-02-21T08:28:06;101298.22;;;9.03;73.93
85082;BME280;75424;50.762;7.178;2024-02-21T08:30:33;101298.03;;;9.10;73.79
85082;BME280;75424;50.762;7.178;2024-02-21T08:32:58;101289.94;;;9.15;72.29
85082;BME280;75424;50.762;7.178;2024-02-21T08:35:24;101294.41;;;9.13;72.51
85082;BME280;75424;50.762;7.178;2024-02-21T08:37:49;101285.41;;;9.18;72.20
85082;BME280;75424;50.762;7.178;2024-02-21T08:40:15;101280.06;;;9.20;71.29
85082;BME280;75424;50.762;7.178;2024-02-21T08:42:44;101273.00;;;9.20;71.62
85082;BME280;75424;50.762;7.178;2024-02-21T08:45:10;101264.00;;;9.26;71.12
85082;BME280;75424;50.762;7.178;2024-02-21T08:47:36;101262.97;;;9.31;71.98
85082;BME280;75424;50.762;7.178;2024-02-21T08:50:02;101251.25;;;9.38;72.02
85082;BME280;75424;50.762;7.178;2024-02-21T08:52:27;101252.03;;;9.42;70.05
85082;BME280;75424;50.762;7.178;2024-02-21T08:54:53;101249.44;;;9.40;71.74
85082;BME280;75424;50.762;7.178;2024-02-21T08:57:19;101256.47;;;9.41;70.68
85082;BME280;75424;50.762;7.178;2024-02-21T08:59:44;101248.38;;;9.46;70.14
85082;BME280;75424;50.762;7.178;2024-02-21T09:02:09;101235.16;;;9.44;70.23
85082;BME280;75424;50.762;7.178;2024-02-21T09:04:35;101241.22;;;9.48;70.44
85082;BME280;75424;50.762;7.178;2024-02-21T09:07:00;101236.72;;;9.51;71.30
85082;BME280;75424;50.762;7.178;2024-02-21T09:09:25;101230.34;;;9.57;69.26
85082;BME280;75424;50.762;7.178;2024-02-21T09:11:53;101216.13;;;9.59;70.16
85082;BME280;75424;50.762;7.178;2024-02-21T09:14:18;101206.19;;;9.66;69.15
85082;BME280;75424;50.762;7.178;2024-02-21T09:16:43;101202.34;;;9.76;69.92
85082;BME280;75424;50.762;7.178;2024-02-21T09:19:09;101196.81;;;9.82;68.83
85082;BME280;75424;50.762;7.178;2024-02-21T09:21:37;101194.47;;;10.00;68.63
85082;BME280;75424;50.762;7.178;2024-02-21T09:24:02;101188.97;;;10.06;68.54
85082;BME280;75424;50.762;7.178;2024-02-21T09:26:28;101186.16;;;10.11;68.18
85082;BME280;75424;50.762;7.178;2024-02-21T09:28:53;101181.56;;;10.16;68.38
85082;BME280;75424;50.762;7.178;2024-02-21T09:31:19;101180.63;;;10.18;67.94
85082;BME280;75424;50.762;7.178;2024-02-21T09:33:44;101174.44;;;10.18;68.05
85082;BME280;75424;50.762;7.178;2024-02-21T09:36:10;101178.91;;;10.16;67.70
85082;BME280;75424;50.762;7.178;2024-02-21T09:38:35;101174.69;;;10.10;67.91
85082;BME280;75424;50.762;7.178;2024-02-21T09:43:44;101161.47;;;10.09;67.56
85082;BME280;75424;50.762;7.178;2024-02-21T09:46:17;101154.22;;;10.14;66.94
85082;BME280;75424;50.762;7.178;2024-02-21T09:51:21;101152.06;;;10.25;66.90
85082;BME280;75424;50.762;7.178;2024-02-21T09:53:46;101135.78;;;10.34;67.09
85082;BME280;75424;50.762;7.178;2024-02-21T09:56:12;101144.25;;;10.45;65.38
85082;BME280;75424;50.762;7.178;2024-02-21T09:58:39;101138.84;;;10.48;66.69
85082;BME280;75424;50.762;7.178;2024-02-21T10:01:04;101134.38;;;10.50;66.29
85082;BME280;75424;50.762;7.178;2024-02-21T10:03:32;101127.34;;;10.47;66.72
85082;BME280;75424;50.762;7.178;2024-02-21T10:05:58;101118.53;;;10.47;65.66
85082;BME280;75424;50.762;7.178;2024-02-21T10:08:26;101112.19;;;10.51;65.40
85082;BME280;75424;50.762;7.178;2024-02-21T10:10:51;101114.63;;;10.55;65.63
85082;BME280;75424;50.762;7.178;2024-02-21T10:13:27;101118.75;;;10.64;65.42
85082;BME280;75424;50.762;7.178;2024-02-21T10:16:03;101106.47;;;10.61;66.33
85082;BME280;75424;50.762;7.178;2024-02-21T10:18:28;101103.53;;;10.69;65.53
85082;BME280;75424;50.762;7.178;2024-02-21T10:21:07;101099.66;;;10.77;66.40
85082;BME280;75424;50.762;7.178;2024-02-21T10:23:45;101100.22;;;10.85;65.97
85082;BME280;75424;50.762;7.178;2024-02-21T10:26:11;101088.59;;;10.89;64.15
85082;BME280;75424;50.762;7.178;2024-02-21T10:28:37;101103.34;;;10.96;63.95
85082;BME280;75424;50.762;7.178;2024-02-21T10:31:07;101096.19;;;10.98;65.09
85082;BME280;75424;50.762;7.178;2024-02-21T10:33:32;101094.47;;;10.97;63.56
85082;BME280;75424;50.762;7.178;2024-02-21T10:36:09;101097.66;;;11.07;64.78
85082;BME280;75424;50.762;7.178;2024-02-21T10:38:39;101095.31;;;11.21;64.08
85082;BME280;75424;50.762;7.178;2024-02-21T10:41:05;101102.06;;;11.29;63.49
85082;BME280;75424;50.762;7.178;2024-02-21T10:43:38;101089.75;;;11.27;64.30
85082;BME280;75424;50.762;7.178;2024-02-21T10:46:07;101097.69;;;11.28;63.81
85082;BME280;75424;50.762;7.178;2024-02-21T10:48:47;101087.47;;;11.40;62.51
85082;BME280;75424;50.762;7.178;2024-02-21T10:51:19;101079.28;;;11.44;63.09
85082;BME280;75424;50.762;7.178;2024-02-21T10:53:57;101081.84;;;11.47;63.76
85082;BME280;75424;50.762;7.178;2024-02-21T10:56:30;101073.75;;;11.50;61.90
85082;BME280;75424;50.762;7.178;2024-02-21T10:59:07;101074.34;;;11.57;62.09
85082;BME280;75424;50.762;7.178;2024-02-21T11:01:33;101073.31;;;11.61;62.76
85082;BME280;75424;50.762;7.178;2024-02-21T11:04:05;101070.06;;;11.53;62.70
85082;BME280;75424;50.762;7.178;2024-02-21T11:06:32;101067.63;;;11.48;62.16
85082;BME280;75424;50.762;7.178;2024-02-21T11:09:09;101059.75;;;11.45;61.88
85082;BME280;75424;50.762;7.178;2024-02-21T11:11:35;101056.72;;;11.54;62.26
85082;BME280;75424;50.762;7.178;2024-02-21T11:14:18;101045.81;;;11.62;62.93
85082;BME280;75424;50.762;7.178;2024-02-21T11:16:44;101032.97;;;11.71;61.56
85082;BME280;75424;50.762;7.178;2024-02-21T11:19:22;101022.03;;;11.77;62.76
85082;BME280;75424;50.762;7.178;2024-02-21T11:21:48;101015.88;;;11.77;61.64
85082;BME280;75424;50.762;7.178;2024-02-21T11:24:14;101018.00;;;11.89;60.63
85082;BME280;75424;50.762;7.178;2024-02-21T11:26:50;101002.34;;;11.81;60.55
85082;BME280;75424;50.762;7.178;2024-02-21T11:29:23;101003.75;;;11.90;60.65
85082;BME280;75424;50.762;7.178;2024-02-21T11:31:48;101004.16;;;12.01;60.92
85082;BME280;75424;50.762;7.178;2024-02-21T11:34:17;100986.97;;;12.08;61.05
85082;BME280;75424;50.762;7.178;2024-02-21T11:36:48;100963.94;;;12.07;60.36
85082;BME280;75424;50.762;7.178;2024-02-21T11:39:20;100942.06;;;11.99;59.28
85082;BME280;75424;50.762;7.178;2024-02-21T11:41:47;100943.59;;;12.04;60.19
85082;BME280;75424;50.762;7.178;2024-02-21T11:44:13;100926.47;;;12.10;60.53
85082;BME280;75424;50.762;7.178;2024-02-21T11:46:38;100926.53;;;12.08;59.64
85082;BME280;75424;50.762;7.178;2024-02-21T11:49:04;100916.44;;;11.96;59.47
85082;BME280;75424;50.762;7.178;2024-02-21T11:51:29;100898.69;;;11.97;58.71
85082;BME280;75424;50.762;7.178;2024-02-21T11:53:55;100893.03;;;11.84;59.40
85082;BME280;75424;50.762;7.178;2024-02-21T11:56:20;100890.44;;;11.83;60.93
85082;BME280;75424;50.762;7.178;2024-02-21T11:58:46;100884.34;;;11.81;59.74
85082;BME280;75424;50.762;7.178;2024-02-21T12:01:13;100886.69;;;11.87;60.79
85082;BME280;75424;50.762;7.178;2024-02-21T12:03:38;100890.09;;;11.90;60.41
85082;BME280;75424;50.762;7.178;2024-02-21T12:06:06;100883.47;;;11.99;60.63
85082;BME280;75424;50.762;7.178;2024-02-21T12:08:41;100865.28;;;12.08;61.18
85082;BME280;75424;50.762;7.178;2024-02-21T12:11:21;100865.66;;;12.19;61.20
85082;BME280;75424;50.762;7.178;2024-02-21T12:13:47;100861.25;;;12.18;61.00
85082;BME280;75424;50.762;7.178;2024-02-21T12:16:15;100848.31;;;12.11;60.25
85082;BME280;75424;50.762;7.178;2024-02-21T12:18:41;100852.13;;;12.05;60.47
85082;BME280;75424;50.762;7.178;2024-02-21T12:21:07;100844.69;;;12.12;61.32
85082;BME280;75424;50.762;7.178;2024-02-21T12:23:32;100841.84;;;12.16;59.38
85082;BME280;75424;50.762;7.178;2024-02-21T12:25:59;100827.25;;;12.23;60.94
85082;BME280;75424;50.762;7.178;2024-02-21T12:28:24;100820.16;;;12.24;60.35
85082;BME280;75424;50.762;7.178;2024-02-21T12:30:49;100817.63;;;12.21;61.52
85082;BME280;75424;50.762;7.178;2024-02-21T12:33:15;100800.94;;;12.17;61.58
85082;BME280;75424;50.762;7.178;2024-02-21T12:35:40;100784.63;;;12.23;60.60
85082;BME280;75424;50.762;7.178;2024-02-21T12:38:06;100785.91;;;12.33;60.72
85082;BME280;75424;50.762;7.178;2024-02-21T12:40:31;100777.84;;;12.35;58.80
85082;BME280;75424;50.762;7.178;2024-02-21T12:43:01;100784.00;;;12.37;59.76
85082;BME280;75424;50.762;7.178;2024-02-21T12:45:28;100784.56;;;12.25;60.05
85082;BME280;75424;50.762;7.178;2024-02-21T12:47:53;100782.75;;;12.25;60.87
85082;BME280;75424;50.762;7.178;2024-02-21T12:50:18;100776.91;;;12.36;60.21
85082;BME280;75424;50.762;7.178;2024-02-21T12:52:44;100766.50;;;12.48;61.13
85082;BME280;75424;50.762;7.178;2024-02-21T12:55:10;100747.56;;;12.54;61.67
85082;BME280;75424;50.762;7.178;2024-02-21T12:57:37;100738.22;;;12.63;61.32
85082;BME280;75424;50.762;7.178;2024-02-21T13:00:02;100718.94;;;12.58;59.45
85082;BME280;75424;50.762;7.178;2024-02-21T13:02:28;100728.56;;;12.43;60.57
85082;BME280;75424;50.762;7.178;2024-02-21T13:04:54;100717.03;;;12.43;60.39